sensor_id;sensor_type;location;lat;lon;timestamp;pressure;altitude;pressure_sealevel;temperature;humidity
28000;BME280;15328;50.860;10.562;2024-03-02T00:01:45;95340.25;;;8.76;62.26
28000;BME280;15328;50.860;10.562;2024-03-02T00:06:46;95328.03;;;8.75;62.47
28000;BME280;15328;50.860;10.562;2024-03-02T00:11:46;95330.47;;;8.77;62.25
28000;BME280;15328;50.860;10.562;2024-03-02T00:16:46;95322.97;;;8.74;62.57
28000;BME280;15328;50.860;10.562;2024-03-02T00:21:47;95341.75;;;8.84;61.93
28000;BME280;15328;50.860;10.562;2024-03-02T00:26:47;95321.47;;;8.78;62.23
28000;BME280;15328;50.860;10.562;2024-03-02T00:31:48;95327.59;;;8.78;62.16
28000;BME280;15328;50.860;10.562;2024-03-02T00:36:48;95322.38;;;8.83;62.37
28000;BME280;15328;50.860;10.562;2024-03-02T00:41:49;95333.69;;;8.79;62.70
28000;BME280;15328;50.860;10.562;2024-03-02T00:46:49;95328.63;;;8.77;62.92
28000;BME280;15328;50.860;10.562;2024-03-02T00:51:52;95330.34;;;8.83;62.75
28000;BME280;15328;50.860;10.562;2024-03-02T00:56:53;95329.53;;;8.83;62.72
28000;BME280;15328;50.860;10.562;2024-03-02T01:01:55;95328.25;;;8.85;62.98
28000;BME280;15328;50.860;10.562;2024-03-02T01:06:55;95335.63;;;8.95;62.83
28000;BME280;15328;50.860;10.562;2024-03-02T01:11:56;95336.66;;;8.94;62.24
28000;BME280;15328;50.860;10.562;2024-03-02T01:16:56;95340.00;;;8.89;62.68
28000;BME280;15328;50.860;10.562;2024-03-02T01:21:57;95341.38;;;8.92;62.59
28000;BME280;15328;50.860;10.562;2024-03-02T01:26:57;95354.19;;;8.95;62.44
28000;BME280;15328;50.860;10.562;2024-03-02T01:31:57;95356.94;;;9.00;62.31
28000;BME280;15328;50.860;10.562;2024-03-02T01:36:58;95354.03;;;9.02;62.23
28000;BME280;15328;50.860;10.562;2024-03-02T01:41:58;95355.06;;;9.12;61.55
28000;BME280;15328;50.860;10.562;2024-03-02T01:46:58;95348.31;;;9.05;61.66
28000;BME280;15328;50.860;10.562;2024-03-02T01:51:59;95348.75;;;9.02;61.61
28000;BME280;15328;50.860;10.562;2024-03-02T01:57:00;95353.94;;;8.96;61.85
28000;BME280;15328;50.860;10.562;2024-03-02T02:02:00;95344.03;;;8.92;61.75
28000;BME280;15328;50.860;10.562;2024-03-02T02:07:01;95350.84;;;8.88;62.05
28000;BME280;15328;50.860;10.562;2024-03-02T02:12:01;95352.50;;;8.77;62.68
28000;BME280;15328;50.860;10.562;2024-03-02T02:17:03;95344.88;;;8.81;62.57
28000;BME280;15328;50.860;10.562;2024-03-02T02:22:03;95344.63;;;8.82;62.35
28000;BME280;15328;50.860;10.562;2024-03-02T02:27:03;95355.59;;;8.86;62.01
28000;BME280;15328;50.860;10.562;2024-03-02T02:32:04;95346.38;;;8.77;62.26
28000;BME280;15328;50.860;10.562;2024-03-02T02:37:05;95337.59;;;8.76;62.60
28000;BME280;15328;50.860;10.562;2024-03-02T02:42:05;95336.69;;;8.82;62.37
28000;BME280;15328;50.860;10.562;2024-03-02T02:47:05;95336.13;;;8.80;62.55
28000;BME280;15328;50.860;10.562;2024-03-02T02:52:06;95330.00;;;8.68;62.45
28000;BME280;15328;50.860;10.562;2024-03-02T02:57:06;95325.63;;;8.62;62.84
28000;BME280;15328;50.860;10.562;2024-03-02T03:02:06;95308.59;;;8.58;62.93
28000;BME280;15328;50.860;10.562;2024-03-02T03:07:07;95297.88;;;8.53;63.60
28000;BME280;15328;50.860;10.562;2024-03-02T03:12:07;95294.06;;;8.49;63.62
28000;BME280;15328;50.860;10.562;2024-03-02T03:17:08;95293.47;;;8.47;63.69
28000;BME280;15328;50.860;10.562;2024-03-02T03:22:08;95307.19;;;8.44;64.56
28000;BME280;15328;50.860;10.562;2024-03-02T03:27:09;95303.75;;;8.43;64.28
28000;BME280;15328;50.860;10.562;2024-03-02T03:32:10;95302.94;;;8.43;64.49
28000;BME280;15328;50.860;10.562;2024-03-02T03:37:11;95300.38;;;8.48;64.51
28000;BME280;15328;50.860;10.562;2024-03-02T03:42:11;95313.44;;;8.49;65.16
28000;BME280;15328;50.860;10.562;2024-03-02T03:47:12;95312.50;;;8.55;64.30
28000;BME280;15328;50.860;10.562;2024-03-02T03:52:12;95314.47;;;8.60;64.43
28000;BME280;15328;50.860;10.562;2024-03-02T03:57:12;95320.91;;;8.64;64.56
28000;BME280;15328;50.860;10.562;2024-03-02T04:02:12;95310.88;;;8.66;63.77
28000;BME280;15328;50.860;10.562;2024-03-02T04:07:13;95304.88;;;8.71;64.40
28000;BME280;15328;50.860;10.562;2024-03-02T04:12:13;95301.31;;;8.77;63.95
28000;BME280;15328;50.860;10.562;2024-03-02T04:17:13;95309.03;;;8.78;64.45
28000;BME280;15328;50.860;10.562;2024-03-02T04:22:14;95302.56;;;8.74;63.52
28000;BME280;15328;50.860;10.562;2024-03-02T04:27:14;95310.88;;;8.78;63.27
28000;BME280;15328;50.860;10.562;2024-03-02T04:32:15;95308.91;;;8.73;63.87
28000;BME280;15328;50.860;10.562;2024-03-02T04:37:15;95311.91;;;8.77;63.48
28000;BME280;15328;50.860;10.562;2024-03-02T04:42:15;95320.53;;;8.72;63.62
28000;BME280;15328;50.860;10.562;2024-03-02T04:47:16;95325.59;;;8.74;63.97
28000;BME280;15328;50.860;10.562;2024-03-02T04:52:16;95315.47;;;8.82;63.79
28000;BME280;15328;50.860;10.562;2024-03-02T04:57:17;95313.72;;;8.88;63.04
28000;BME280;15328;50.860;10.562;2024-03-02T05:02:17;95311.22;;;8.70;63.67
28000;BME280;15328;50.860;10.562;2024-03-02T05:07:18;95312.25;;;8.68;63.59
28000;BME280;15328;50.860;10.562;2024-03-02T05:12:18;95324.34;;;8.64;64.33
28000;BME280;15328;50.860;10.562;2024-03-02T05:17:38;95320.31;;;8.74;63.80
28000;BME280;15328;50.860;10.562;2024-03-02T05:22:38;95321.72;;;8.64;64.18
28000;BME280;15328;50.860;10.562;2024-03-02T05:27:39;95328.16;;;8.68;64.42
28000;BME280;15328;50.860;10.562;2024-03-02T05:32:40;95334.03;;;8.71;64.49
28000;BME280;15328;50.860;10.562;2024-03-02T05:37:40;95341.88;;;8.77;63.87
28000;BME280;15328;50.860;10.562;2024-03-02T05:42:41;95346.38;;;8.77;64.03
28000;BME280;15328;50.860;10.562;2024-03-02T05:47:41;95346.25;;;8.83;63.21
28000;BME280;15328;50.860;10.562;2024-03-02T05:52:41;95349.03;;;8.77;63.84
28000;BME280;15328;50.860;10.562;2024-03-02T05:57:42;95352.94;;;8.74;64.35
28000;BME280;15328;50.860;10.562;2024-03-02T06:02:49;95351.09;;;8.75;63.78
28000;BME280;15328;50.860;10.562;2024-03-02T06:07:49;95358.25;;;8.62;64.19
28000;BME280;15328;50.860;10.562;2024-03-02T06:12:49;95356.41;;;8.63;63.95
28000;BME280;15328;50.860;10.562;2024-03-02T06:17:50;95358.84;;;8.53;64.40
28000;BME280;15328;50.860;10.562;2024-03-02T06:22:50;95359.75;;;8.47;64.71
28000;BME280;15328;50.860;10.562;2024-03-02T06:27:50;95369.31;;;8.36;65.06
28000;BME280;15328;50.860;10.562;2024-03-02T06:32:51;95373.34;;;8.39;65.28
28000;BME280;15328;50.860;10.562;2024-03-02T06:37:51;95375.03;;;8.33;65.41
28000;BME280;15328;50.860;10.562;2024-03-02T06:42:51;95380.72;;;8.36;65.52
28000;BME280;15328;50.860;10.562;2024-03-02T06:47:52;95385.22;;;8.36;65.21
28000;BME280;15328;50.860;10.562;2024-03-02T06:52:52;95386.25;;;8.35;65.54
28000;BME280;15328;50.860;10.562;2024-03-02T06:57:53;95400.06;;;8.49;65.73
28000;BME280;15328;50.860;10.562;2024-03-02T07:02:53;95412.19;;;8.68;65.18
28000;BME280;15328;50.860;10.562;2024-03-02T07:07:53;95410.34;;;8.68;65.23
28000;BME280;15328;50.860;10.562;2024-03-02T07:12:55;95412.31;;;8.85;64.44
28000;BME280;15328;50.860;10.562;2024-03-02T07:17:55;95413.69;;;8.87;64.08
28000;BME280;15328;50.860;10.562;2024-03-02T07:22:56;95425.44;;;9.03;62.68
28000;BME280;15328;50.860;10.562;2024-03-02T07:27:56;95416.00;;;9.07;63.04
28000;BME280;15328;50.860;10.562;2024-03-02T07:32:57;95426.59;;;9.07;62.84
28000;BME280;15328;50.860;10.562;2024-03-02T07:37:57;95418.41;;;9.09;61.39
28000;BME280;15328;50.860;10.562;2024-03-02T07:42:58;95429.72;;;9.04;61.33
28000;BME280;15328;50.860;10.562;2024-03-02T07:47:58;95422.69;;;8.98;60.16
28000;BME280;15328;50.860;10.562;2024-03-02T07:52:58;95428.09;;;8.91;60.71
28000;BME280;15328;50.860;10.562;2024-03-02T07:58:02;95425.22;;;8.93;59.70
28000;BME280;15328;50.860;10.562;2024-03-02T08:03:03;95429.50;;;8.82;59.82
28000;BME280;15328;50.860;10.562;2024-03-02T08:08:04;95428.00;;;8.86;60.29
28000;BME280;15328;50.860;10.562;2024-03-02T08:13:05;95427.53;;;8.89;59.81
28000;BME280;15328;50.860;10.562;2024-03-02T08:18:06;95429.81;;;8.97;59.92
28000;BME280;15328;50.860;10.562;2024-03-02T08:23:06;95435.13;;;8.97;60.18
28000;BME280;15328;50.860;10.562;2024-03-02T08:28:08;95427.88;;;9.05;59.88
28000;BME280;15328;50.860;10.562;2024-03-02T08:33:08;95435.69;;;9.23;59.77
28000;BME280;15328;50.860;10.562;2024-03-02T08:38:11;95431.75;;;9.37;58.64
28000;BME280;15328;50.860;10.562;2024-03-02T08:43:12;95429.06;;;9.49;58.47
28000;BME280;15328;50.860;10.562;2024-03-02T08:48:12;95435.25;;;9.66;57.55
28000;BME280;15328;50.860;10.562;2024-03-02T08:53:13;95439.44;;;9.90;58.41
28000;BME280;15328;50.860;10.562;2024-03-02T08:58:13;95441.25;;;10.30;56.98
28000;BME280;15328;50.860;10.562;2024-03-02T09:03:14;95441.25;;;10.64;54.81
28000;BME280;15328;50.860;10.562;2024-03-02T09:08:15;95442.75;;;11.27;55.01
28000;BME280;15328;50.860;10.562;2024-03-02T09:13:15;95438.72;;;12.12;52.87
28000;BME280;15328;50.860;10.562;2024-03-02T09:18:15;95450.00;;;13.15;47.16
28000;BME280;15328;50.860;10.562;2024-03-02T09:23:16;95444.03;;;14.02;45.12
28000;BME280;15328;50.860;10.562;2024-03-02T09:28:16;95447.13;;;14.77;42.76
28000;BME280;15328;50.860;10.562;2024-03-02T09:33:16;95454.84;;;15.39;40.36
28000;BME280;15328;50.860;10.562;2024-03-02T09:38:17;95456.16;;;15.67;39.39
28000;BME280;15328;50.860;10.562;2024-03-02T09:43:18;95456.78;;;16.08;39.71
28000;BME280;15328;50.860;10.562;2024-03-02T09:48:18;95462.94;;;16.58;37.56
28000;BME280;15328;50.860;10.562;2024-03-02T09:53:21;95460.88;;;16.89;36.45
28000;BME280;15328;50.860;10.562;2024-03-02T09:58:22;95467.13;;;17.14;37.96
28000;BME280;15328;50.860;10.562;2024-03-02T10:03:23;95460.09;;;17.47;34.66
28000;BME280;15328;50.860;10.562;2024-03-02T10:08:42;95469.34;;;17.36;35.21
28000;BME280;15328;50.860;10.562;2024-03-02T10:13:43;95464.03;;;17.30;35.18
28000;BME280;15328;50.860;10.562;2024-03-02T10:18:43;95468.59;;;17.30;34.83
28000;BME280;15328;50.860;10.562;2024-03-02T10:23:43;95466.84;;;17.15;34.86
28000;BME280;15328;50.860;10.562;2024-03-02T10:28:47;95474.63;;;16.83;35.23
28000;BME280;15328;50.860;10.562;2024-03-02T10:33:59;95468.28;;;16.63;34.98
28000;BME280;15328;50.860;10.562;2024-03-02T10:39:01;95461.19;;;16.38;36.83
28000;BME280;15328;50.860;10.562;2024-03-02T10:44:03;95462.53;;;16.36;36.63
28000;BME280;15328;50.860;10.562;2024-03-02T10:49:05;95465.88;;;16.18;36.27
28000;BME280;15328;50.860;10.562;2024-03-02T10:54:06;95470.06;;;15.74;35.64
28000;BME280;15328;50.860;10.562;2024-03-02T11:04:25;95480.03;;;14.57;38.41
28000;BME280;15328;50.860;10.562;2024-03-02T11:09:28;95478.34;;;14.31;38.79
28000;BME280;15328;50.860;10.562;2024-03-02T11:14:31;95474.53;;;14.06;40.25
28000;BME280;15328;50.860;10.562;2024-03-02T11:19:35;95472.13;;;14.05;40.42
28000;BME280;15328;50.860;10.562;2024-03-02T11:24:38;95464.09;;;14.05;40.24
28000;BME280;15328;50.860;10.562;2024-03-02T11:34:41;95463.38;;;14.30;40.88
28000;BME280;15328;50.860;10.562;2024-03-02T11:39:47;95456.69;;;14.42;40.39
28000;BME280;15328;50.860;10.562;2024-03-02T11:44:48;95449.28;;;14.60;39.82
28000;BME280;15328;50.860;10.562;2024-03-02T11:49:50;95452.22;;;14.99;37.61
28000;BME280;15328;50.860;10.562;2024-03-02T11:54:51;95451.06;;;15.45;37.24
28000;BME280;15328;50.860;10.562;2024-03-02T11:59:53;95437.56;;;15.91;36.06
28000;BME280;15328;50.860;10.562;2024-03-02T12:04:54;95433.84;;;16.31;35.19
28000;BME280;15328;50.860;10.562;2024-03-02T12:09:59;95436.56;;;16.76;35.04
28000;BME280;15328;50.860;10.562;2024-03-02T12:15:02;95424.50;;;17.02;33.80
28000;BME280;15328;50.860;10.562;2024-03-02T12:20:05;95417.50;;;17.06;34.58
28000;BME280;15328;50.860;10.562;2024-03-02T12:25:05;95415.13;;;17.28;33.48
28000;BME280;15328;50.860;10.562;2024-03-02T12:30:06;95419.75;;;17.47;32.94
28000;BME280;15328;50.860;10.562;2024-03-02T12:35:11;95422.19;;;17.96;31.86
28000;BME280;15328;50.860;10.562;2024-03-02T12:40:16;95417.78;;;18.43;31.62
28000;BME280;15328;50.860;10.562;2024-03-02T12:45:20;95413.31;;;18.90;30.59
28000;BME280;15328;50.860;10.562;2024-03-02T12:50:23;95416.91;;;19.18;29.69
28000;BME280;15328;50.860;10.562;2024-03-02T12:55:24;95408.72;;;19.36;29.74
28000;BME280;15328;50.860;10.562;2024-03-02T13:00:25;95399.41;;;19.75;29.11
28000;BME280;15328;50.860;10.562;2024-03-02T13:05:30;95396.88;;;19.92;27.97
28000;BME280;15328;50.860;10.562;2024-03-02T13:10:30;95387.69;;;19.66;28.59
28000;BME280;15328;50.860;10.562;2024-03-02T13:15:33;95391.00;;;19.63;27.75
28000;BME280;15328;50.860;10.562;2024-03-02T13:20:33;95384.72;;;19.54;27.56
28000;BME280;15328;50.860;10.562;2024-03-02T13:25:34;95382.81;;;19.54;27.54
28000;BME280;15328;50.860;10.562;2024-03-02T13:30:40;95381.28;;;19.48;27.23
28000;BME280;15328;50.860;10.562;2024-03-02T13:35:41;95375.88;;;19.34;28.01
28000;BME280;15328;50.860;10.562;2024-03-02T13:40:41;95374.97;;;19.25;27.25
28000;BME280;15328;50.860;10.562;2024-03-02T13:45:42;95368.94;;;19.01;27.60
28000;BME280;15328;50.860;10.562;2024-03-02T13:50:42;95371.84;;;18.72;27.30
28000;BME280;15328;50.860;10.562;2024-03-02T13:55:42;95366.47;;;18.53;27.17
28000;BME280;15328;50.860;10.562;2024-03-02T14:00:44;95367.66;;;18.28;27.30
28000;BME280;15328;50.860;10.562;2024-03-02T14:05:45;95369.03;;;18.07;27.33
28000;BME280;15328;50.860;10.562;2024-03-02T14:10:46;95358.91;;;17.99;28.45
28000;BME280;15328;50.860;10.562;2024-03-02T14:15:47;95346.34;;;18.13;28.55
28000;BME280;15328;50.860;10.562;2024-03-02T14:20:48;95351.19;;;18.30;28.50
28000;BME280;15328;50.860;10.562;2024-03-02T14:25:52;95346.41;;;18.45;28.50
28000;BME280;15328;50.860;10.562;2024-03-02T14:30:53;95340.34;;;18.53;28.76
28000;BME280;15328;50.860;10.562;2024-03-02T14:35:53;95335.72;;;18.40;28.25
28000;BME280;15328;50.860;10.562;2024-03-02T14:40:54;95343.75;;;18.59;26.81
28000;BME280;15328;50.860;10.562;2024-03-02T14:45:55;95336.81;;;17.83;28.63
28000;BME280;15328;50.860;10.562;2024-03-02T14:50:55;95326.59;;;17.37;28.92
28000;BME280;15328;50.860;10.562;2024-03-02T14:55:56;95319.34;;;17.14;28.83
28000;BME280;15328;50.860;10.562;2024-03-02T15:00:56;95314.16;;;16.64;29.65
28000;BME280;15328;50.860;10.562;2024-03-02T15:05:57;95311.75;;;16.34;29.98
28000;BME280;15328;50.860;10.562;2024-03-02T15:10:57;95308.16;;;16.10;31.25
28000;BME280;15328;50.860;10.562;2024-03-02T15:15:59;95304.00;;;15.93;30.74
28000;BME280;15328;50.860;10.562;2024-03-02T15:21:00;95313.53;;;15.70;31.45
28000;BME280;15328;50.860;10.562;2024-03-02T15:26:00;95311.75;;;15.40;31.97
28000;BME280;15328;50.860;10.562;2024-03-02T15:31:00;95309.66;;;15.27;32.70
28000;BME280;15328;50.860;10.562;2024-03-02T15:36:01;95308.31;;;15.25;33.28
28000;BME280;15328;50.860;10.562;2024-03-02T15:41:01;95304.38;;;15.02;34.40
28000;BME280;15328;50.860;10.562;2024-03-02T15:46:02;95297.72;;;14.94;34.57
28000;BME280;15328;50.860;10.562;2024-03-02T15:51:03;95294.56;;;14.72;35.29
28000;BME280;15328;50.860;10.562;2024-03-02T15:56:04;95295.13;;;14.64;36.33
28000;BME280;15328;50.860;10.562;2024-03-02T16:01:05;95298.34;;;14.56;36.61
28000;BME280;15328;50.860;10.562;2024-03-02T16:06:05;95301.81;;;14.51;37.67
28000;BME280;15328;50.860;10.562;2024-03-02T16:11:06;95292.19;;;14.35;38.06
28000;BME280;15328;50.860;10.562;2024-03-02T16:16:06;95297.78;;;14.18;39.16
28000;BME280;15328;50.860;10.562;2024-03-02T16:21:08;95298.31;;;14.05;38.95
28000;BME280;15328;50.860;10.562;2024-03-02T16:26:08;95301.25;;;13.83;39.99
28000;BME280;15328;50.860;10.562;2024-03-02T16:31:09;95294.50;;;13.60;39.99
28000;BME280;15328;50.860;10.562;2024-03-02T16:36:10;95291.50;;;13.41;41.09
28000;BME280;15328;50.860;10.562;2024-03-02T16:41:10;95297.56;;;13.16;41.20
28000;BME280;15328;50.860;10.562;2024-03-02T16:46:11;95289.38;;;12.81;42.00
28000;BME280;15328;50.860;10.562;2024-03-02T16:51:11;95294.38;;;12.67;42.78
28000;BME280;15328;50.860;10.562;2024-03-02T16:56:11;95302.50;;;12.45;43.47
28000;BME280;15328;50.860;10.562;2024-03-02T17:01:12;95308.22;;;12.27;44.06
28000;BME280;15328;50.860;10.562;2024-03-02T17:06:12;95315.84;;;12.13;44.42
28000;BME280;15328;50.860;10.562;2024-03-02T17:11:12;95315.00;;;12.07;44.51
28000;BME280;15328;50.860;10.562;2024-03-02T17:16:13;95321.69;;;11.78;45.24
28000;BME280;15328;50.860;10.562;2024-03-02T17:21:17;95329.38;;;11.53;45.54
28000;BME280;15328;50.860;10.562;2024-03-02T17:26:18;95333.09;;;11.30;46.54
28000;BME280;15328;50.860;10.562;2024-03-02T17:31:19;95328.47;;;10.98;47.26
28000;BME280;15328;50.860;10.562;2024-03-02T17:36:19;95337.78;;;10.79;47.68
28000;BME280;15328;50.860;10.562;2024-03-02T17:41:20;95334.31;;;10.62;48.12
28000;BME280;15328;50.860;10.562;2024-03-02T17:46:20;95339.69;;;10.45;48.83
28000;BME280;15328;50.860;10.562;2024-03-02T17:51:20;95342.16;;;10.18;49.28
28000;BME280;15328;50.860;10.562;2024-03-02T17:56:21;95331.25;;;10.03;50.00
28000;BME280;15328;50.860;10.562;2024-03-02T18:01:21;95338.25;;;9.92;50.45
28000;BME280;15328;50.860;10.562;2024-03-02T18:06:21;95335.56;;;9.75;50.67
28000;BME280;15328;50.860;10.562;2024-03-02T18:11:22;95336.91;;;9.61;51.07
28000;BME280;15328;50.860;10.562;2024-03-02T18:16:24;95339.13;;;9.52;51.70
28000;BME280;15328;50.860;10.562;2024-03-02T18:21:25;95340.63;;;9.60;51.52
28000;BME280;15328;50.860;10.562;2024-03-02T18:26:25;95337.28;;;9.53;51.51
28000;BME280;15328;50.860;10.562;2024-03-02T18:31:27;95332.13;;;9.46;51.52
28000;BME280;15328;50.860;10.562;2024-03-02T18:36:27;95343.34;;;9.37;51.55
28000;BME280;15328;50.860;10.562;2024-03-02T18:41:27;95343.28;;;9.20;51.99
28000;BME280;15328;50.860;10.562;2024-03-02T18:46:27;95335.22;;;9.15;52.14
28000;BME280;15328;50.860;10.562;2024-03-02T18:51:28;95343.00;;;9.05;52.74
28000;BME280;15328;50.860;10.562;2024-03-02T18:56:28;95333.28;;;8.98;53.37
28000;BME280;15328;50.860;10.562;2024-03-02T19:01:29;95333.34;;;8.87;53.71
28000;BME280;15328;50.860;10.562;2024-03-02T19:06:29;95333.00;;;8.83;53.69
28000;BME280;15328;50.860;10.562;2024-03-02T19:11:29;95324.81;;;8.85;53.97
28000;BME280;15328;50.860;10.562;2024-03-02T19:16:30;95318.47;;;8.74;54.33
28000;BME280;15328;50.860;10.562;2024-03-02T19:21:30;95313.28;;;8.67;55.10
28000;BME280;15328;50.860;10.562;2024-03-02T19:26:32;95310.16;;;8.71;55.24
28000;BME280;15328;50.860;10.562;2024-03-02T19:31:32;95319.63;;;8.66;54.71
28000;BME280;15328;50.860;10.562;2024-03-02T19:36:33;95317.22;;;8.53;55.33
28000;BME280;15328;50.860;10.562;2024-03-02T19:41:33;95320.44;;;8.44;55.45
28000;BME280;15328;50.860;10.562;2024-03-02T19:46:34;95313.53;;;8.43;55.29
28000;BME280;15328;50.860;10.562;2024-03-02T19:51:34;95316.75;;;8.45;55.81
28000;BME280;15328;50.860;10.562;2024-03-02T19:56:34;95316.41;;;8.41;55.29
28000;BME280;15328;50.860;10.562;2024-03-02T20:01:36;95311.13;;;8.41;55.55
28000;BME280;15328;50.860;10.562;2024-03-02T20:06:36;95310.06;;;8.30;55.25
28000;BME280;15328;50.860;10.562;2024-03-02T20:11:37;95296.59;;;8.32;55.32
28000;BME280;15328;50.860;10.562;2024-03-02T20:16:37;95286.59;;;8.34;55.24
28000;BME280;15328;50.860;10.562;2024-03-02T20:21:42;95290.72;;;8.30;55.11
28000;BME280;15328;50.860;10.562;2024-03-02T20:26:42;95274.00;;;8.29;55.27
28000;BME280;15328;50.860;10.562;2024-03-02T20:31:43;95271.59;;;8.28;55.65
28000;BME280;15328;50.860;10.562;2024-03-02T20:36:44;95280.91;;;8.19;55.25
28000;BME280;15328;50.860;10.562;2024-03-02T20:41:44;95280.56;;;8.15;55.72
28000;BME280;15328;50.860;10.562;2024-03-02T20:46:45;95275.59;;;8.07;55.81
28000;BME280;15328;50.860;10.562;2024-03-02T20:51:45;95267.91;;;8.05;55.99
28000;BME280;15328;50.860;10.562;2024-03-02T20:56:46;95271.00;;;8.02;56.08
28000;BME280;15328;50.860;10.562;2024-03-02T21:01:47;95251.09;;;8.00;55.83
28000;BME280;15328;50.860;10.562;2024-03-02T21:06:48;95266.16;;;7.99;55.82
28000;BME280;15328;50.860;10.562;2024-03-02T21:11:48;95260.06;;;7.99;55.61
28000;BME280;15328;50.860;10.562;2024-03-02T21:16:49;95262.22;;;7.90;55.74
28000;BME280;15328;50.860;10.562;2024-03-02T21:21:52;95264.75;;;7.85;55.56
28000;BME280;15328;50.860;10.562;2024-03-02T21:26:55;95259.34;;;7.80;55.51
28000;BME280;15328;50.860;10.562;2024-03-02T21:31:55;95265.44;;;7.69;55.24
28000;BME280;15328;50.860;10.562;2024-03-02T21:36:56;95268.97;;;7.63;55.97
28000;BME280;15328;50.860;10.562;2024-03-02T21:41:58;95258.59;;;7.50;56.11
28000;BME280;15328;50.860;10.562;2024-03-02T21:46:58;95259.28;;;7.45;56.32
28000;BME280;15328;50.860;10.562;2024-03-02T21:51:58;95254.88;;;7.39;56.41
28000;BME280;15328;50.860;10.562;2024-03-02T21:57:00;95250.41;;;7.39;56.27
28000;BME280;15328;50.860;10.562;2024-03-02T22:02:15;95240.50;;;7.35;56.67
28000;BME280;15328;50.860;10.562;2024-03-02T22:07:15;95227.16;;;7.30;56.62
28000;BME280;15328;50.860;10.562;2024-03-02T22:12:15;95216.56;;;7.30;56.34
28000;BME280;15328;50.860;10.562;2024-03-02T22:17:16;95209.66;;;7.17;56.78
28000;BME280;15328;50.860;10.562;2024-03-02T22:22:16;95201.84;;;7.22;56.62
28000;BME280;15328;50.860;10.562;2024-03-02T22:27:16;95215.50;;;7.19;56.34
28000;BME280;15328;50.860;10.562;2024-03-02T22:32:17;95201.56;;;7.12;56.45
28000;BME280;15328;50.860;10.562;2024-03-02T22:37:17;95198.72;;;7.13;56.52
28000;BME280;15328;50.860;10.562;2024-03-02T22:42:31;95204.06;;;7.07;56.29
28000;BME280;15328;50.860;10.562;2024-03-02T22:47:31;95200.84;;;7.05;56.36
28000;BME280;15328;50.860;10.562;2024-03-02T22:52:32;95207.63;;;7.01;56.25
28000;BME280;15328;50.860;10.562;2024-03-02T22:57:32;95210.59;;;6.93;55.90
28000;BME280;15328;50.860;10.562;2024-03-02T23:02:33;95203.41;;;6.81;55.96
28000;BME280;15328;50.860;10.562;2024-03-02T23:07:33;95199.81;;;6.76;56.15
28000;BME280;15328;50.860;10.562;2024-03-02T23:12:33;95208.88;;;6.68;57.05
28000;BME280;15328;50.860;10.562;2024-03-02T23:17:34;95197.50;;;6.68;57.21
28000;BME280;15328;50.860;10.562;2024-03-02T23:22:34;95186.22;;;6.61;57.40
28000;BME280;15328;50.860;10.562;2024-03-02T23:27:34;95176.72;;;6.53;57.76
28000;BME280;15328;50.860;10.562;2024-03-02T23:32:35;95167.56;;;6.56;57.88
28000;BME280;15328;50.860;10.562;2024-03-02T23:37:35;95164.69;;;6.57;57.79
28000;BME280;15328;50.860;10.562;2024-03-02T23:42:35;95172.72;;;6.50;58.15
28000;BME280;15328;50.860;10.562;2024-03-02T23:47:36;95174.31;;;6.51;58.46
28000;BME280;15328;50.860;10.562;2024-03-02T23:52:38;95176.97;;;6.51;58.24
28000;BME280;15328;50.860;10.562;2024-03-02T23:57:38;95180.06;;;6.48;58.69
